| time (UTC) | temp F | wind direction | speed MPH | gust MPH | rain 1hr in | rain 24hr in | rain mn in | humidity % | barometer mb |
| 20260906040026 | 73 | 124 | 0.0 | 0.0 | 0.00 | 0.23 | 0.00 | 93 | 1013.3 |
| 20260906034519 | 74 | 124 | 0.0 | 0.0 | 0.00 | 0.23 | 0.23 | 94 | 1013.4 |
| 20260906033033 | 74 | 124 | 0.0 | 0.0 | 0.00 | 0.23 | 0.23 | 93 | 1013.4 |
| 20260906031510 | 74 | 124 | 0.0 | 0.0 | 0.00 | 0.23 | 0.23 | 94 | 1013.6 |
| 20260906030014 | 74 | 124 | 0.0 | 0.0 | 0.00 | 0.23 | 0.23 | 93 | 1013.6 |
| 20260906024518 | 75 | 124 | 0.0 | 0.0 | 0.00 | 0.23 | 0.23 | 93 | 1013.5 |
| 20260906023018 | 75 | 124 | 0.0 | 0.0 | 0.00 | 0.23 | 0.23 | 93 | 1013.3 |
| 20260906021524 | 75 | 124 | 0.0 | 0.0 | 0.00 | 0.23 | 0.23 | 93 | 1013.5 |
| 20260906020010 | 75 | 124 | 0.0 | 0.0 | 0.00 | 0.23 | 0.23 | 93 | 1013.6 |
| 20260906014517 | 75 | 343 | 0.0 | 0.0 | 0.00 | 0.23 | 0.23 | 93 | 1013.2 |
| 20260906013023 | 75 | 343 | 0.0 | 0.0 | 0.00 | 0.23 | 0.23 | 92 | 1013.1 |
| 20260906011524 | 75 | 343 | 0.0 | 0.0 | 0.00 | 0.23 | 0.23 | 91 | 1012.9 |
| 20260906010011 | 75 | 343 | 0.0 | 0.0 | 0.00 | 0.23 | 0.23 | 91 | 1012.7 |
| 20260906004514 | 76 | 343 | 0.0 | 0.0 | 0.00 | 0.23 | 0.23 | 91 | 1012.5 |
| 20260906003020 | 76 | 343 | 0.0 | 0.0 | 0.00 | 0.23 | 0.23 | 90 | 1012.4 |
| 20260906001504 | 76 | 343 | 0.0 | 0.0 | 0.00 | 0.23 | 0.23 | 89 | 1012.5 |
| 20260906000004 | 77 | 343 | 0.0 | 0.0 | 0.00 | 0.23 | 0.23 | 88 | 1012.3 |
| 20260905234509 | 77 | 343 | 0.0 | 0.0 | 0.00 | 0.23 | 0.23 | 88 | 1012.3 |
| 20260905233015 | 78 | 343 | 0.0 | 0.0 | 0.00 | 0.23 | 0.23 | 88 | 1012.3 |
| 20260905231526 | 78 | 343 | 0.0 | 0.0 | 0.00 | 0.23 | 0.23 | 87 | 1012.1 |
| 20260905230004 | 78 | 345 | 0.0 | 0.0 | 0.00 | 0.23 | 0.23 | 86 | 1012.2 |
| 20260905224511 | 78 | 345 | 0.0 | 0.0 | 0.00 | 0.23 | 0.23 | 87 | 1012.0 |
| 20260905223013 | 78 | 345 | 0.0 | 0.0 | 0.00 | 0.23 | 0.23 | 88 | 1012.0 |
| 20260905221518 | 77 | 345 | 0.0 | 0.0 | 0.00 | 0.23 | 0.23 | 87 | 1012.0 |
| 20260905220024 | 76 | 345 | 0.0 | 0.0 | 0.00 | 0.23 | 0.23 | 87 | 1012.1 |
| 20260905214504 | 77 | 345 | 0.0 | 0.0 | 0.00 | 0.23 | 0.23 | 87 | 1012.2 |
| 20260905213009 | 77 | 345 | 0.0 | 0.0 | 0.00 | 0.23 | 0.23 | 87 | 1012.3 |
| 20260905211535 | 76 | 345 | 0.0 | 2.0 | 0.00 | 0.23 | 0.23 | 84 | 1012.5 |
| 20260905210038 | 75 | 84 | 0.0 | 1.0 | 0.00 | 0.23 | 0.23 | 88 | 1012.7 |
| 20260905204529 | 75 | 355 | 1.0 | 2.0 | 0.01 | 0.23 | 0.23 | 88 | 1013.0 |
| 20260905203034 | 75 | 68 | 0.0 | 2.0 | 0.05 | 0.23 | 0.23 | 89 | 1013.3 |
| 20260905201510 | 75 | 75 | 0.0 | 3.0 | 0.23 | 0.23 | 0.23 | 92 | 1013.6 |
| 20260905200026 | 76 | 74 | 1.0 | 4.0 | 0.23 | 0.23 | 0.23 | 92 | 1013.0 |
| 20260905194526 | 75 | 103 | 1.0 | 2.0 | 0.22 | 0.22 | 0.22 | 90 | 1012.8 |
| 20260905193027 | 77 | 12 | 1.0 | 9.0 | 0.18 | 0.18 | 0.18 | 84 | 1014.1 |
| 20260905191532 | 87 | 311 | 3.0 | 9.0 | 0.00 | 0.00 | 0.00 | 66 | 1013.5 |
| 20260905190012 | 92 | 3 | 0.0 | 1.0 | 0.00 | 0.00 | 0.00 | 58 | 1012.6 |
| 20260905184527 | 93 | 56 | 0.0 | 0.0 | 0.00 | 0.00 | 0.00 | 55 | 1012.8 |
| 20260905183027 | 94 | 26 | 0.0 | 0.0 | 0.00 | 0.00 | 0.00 | 54 | 1012.9 |
| 20260905181531 | 94 | 51 | 0.0 | 0.0 | 0.00 | 0.00 | 0.00 | 53 | 1012.7 |
| 20260905180037 | 93 | 59 | 0.0 | 3.0 | 0.00 | 0.00 | 0.00 | 51 | 1013.0 |
| 20260905174516 | 93 | 244 | 0.0 | 4.0 | 0.00 | 0.00 | 0.00 | 55 | 1013.2 |
| 20260905173021 | 93 | 103 | 0.0 | 4.0 | 0.00 | 0.00 | 0.00 | 56 | 1013.5 |
| 20260905171530 | 92 | 349 | 0.0 | 3.0 | 0.00 | 0.00 | 0.00 | 57 | 1013.8 |
| 20260905170030 | 92 | 349 | 0.0 | 4.0 | 0.00 | 0.00 | 0.00 | 60 | 1014.0 |
| 20260905164534 | 91 | 58 | 0.0 | 0.0 | 0.00 | 0.00 | 0.00 | 60 | 1014.1 |
| 20260905163017 | 90 | 351 | 1.0 | 3.0 | 0.00 | 0.00 | 0.00 | 62 | 1014.3 |
| 20260905161524 | 89 | 349 | 0.0 | 0.0 | 0.00 | 0.00 | 0.00 | 64 | 1014.4 |
| 20260905160004 | 89 | 347 | 0.0 | 2.0 | 0.00 | 0.00 | 0.00 | 65 | 1014.6 |
| 20260905154511 | 88 | 233 | 0.0 | 3.0 | 0.00 | 0.00 | 0.00 | 66 | 1014.7 |
| 20260905153019 | 87 | 247 | 0.0 | 0.0 | 0.00 | 0.00 | 0.00 | 68 | 1014.8 |
| 20260905151522 | 86 | 244 | 0.0 | 2.0 | 0.00 | 0.00 | 0.00 | 68 | 1014.7 |
| 20260905150027 | 86 | 239 | 1.0 | 4.0 | 0.00 | 0.00 | 0.00 | 71 | 1014.7 |
| 20260905144521 | 85 | 250 | 0.0 | 0.0 | 0.00 | 0.00 | 0.00 | 73 | 1014.7 |
| 20260905143009 | 84 | 239 | 0.0 | 0.0 | 0.00 | 0.00 | 0.00 | 73 | 1014.9 |
| 20260905141515 | 83 | 231 | 0.0 | 0.0 | 0.00 | 0.00 | 0.00 | 76 | 1014.8 |
| 20260905140023 | 82 | 231 | 0.0 | 0.0 | 0.00 | 0.00 | 0.00 | 76 | 1015.0 |
| 20260905134529 | 82 | 239 | 0.0 | 0.0 | 0.00 | 0.00 | 0.00 | 78 | 1015.1 |
| 20260905133006 | 81 | 236 | 0.0 | 0.0 | 0.00 | 0.00 | 0.00 | 80 | 1015.3 |
| 20260905131517 | 80 | 236 | 0.0 | 0.0 | 0.00 | 0.00 | 0.00 | 81 | 1015.4 |
| 20260905130019 | 79 | 236 | 0.0 | 0.0 | 0.00 | 0.00 | 0.00 | 83 | 1015.3 |
| 20260905124526 | 78 | 233 | 0.0 | 0.0 | 0.00 | 0.00 | 0.00 | 85 | 1015.2 |
| 20260905123030 | 76 | 233 | 0.0 | 0.0 | 0.00 | 0.00 | 0.00 | 87 | 1015.1 |
| 20260905121508 | 76 | 216 | 0.0 | 0.0 | 0.00 | 0.00 | 0.00 | 88 | 1015.1 |
| 20260905120017 | 75 | 80 | 0.0 | 0.0 | 0.00 | 0.00 | 0.00 | 89 | 1015.1 |
| 20260905114523 | 74 | 79 | 0.0 | 0.0 | 0.00 | 0.00 | 0.00 | 90 | 1014.9 |
| 20260905113026 | 74 | 79 | 0.0 | 0.0 | 0.00 | 0.00 | 0.00 | 90 | 1014.6 |
| 20260905111531 | 74 | 79 | 0.0 | 0.0 | 0.00 | 0.00 | 0.00 | 89 | 1014.4 |
| 20260905110037 | 74 | 79 | 0.0 | 0.0 | 0.00 | 0.00 | 0.00 | 89 | 1014.0 |
| 20260905104515 | 74 | 79 | 0.0 | 0.0 | 0.00 | 0.00 | 0.00 | 88 | 1014.0 |
| 20260905103023 | 74 | 79 | 0.0 | 0.0 | 0.00 | 0.00 | 0.00 | 88 | 1013.9 |
| 20260905101533 | 75 | 79 | 0.0 | 0.0 | 0.00 | 0.00 | 0.00 | 88 | 1013.8 |
| 20260905100008 | 75 | 79 | 0.0 | 0.0 | 0.00 | 0.00 | 0.00 | 88 | 1013.8 |
| 20260905094502 | 75 | 79 | 0.0 | 0.0 | 0.00 | 0.00 | 0.00 | 88 | 1013.8 |
| 20260905093004 | 75 | 79 | 0.0 | 0.0 | 0.00 | 0.00 | 0.00 | 87 | 1013.7 |
| 20260905091504 | 76 | 80 | 0.0 | 0.0 | 0.00 | 0.00 | 0.00 | 86 | 1013.7 |
| 20260905090008 | 76 | 80 | 0.0 | 0.0 | 0.00 | 0.00 | 0.00 | 86 | 1013.7 |
| 20260905084511 | 76 | 80 | 0.0 | 0.0 | 0.00 | 0.00 | 0.00 | 85 | 1013.8 |
| 20260905083005 | 76 | 80 | 0.0 | 0.0 | 0.00 | 0.00 | 0.00 | 86 | 1014.0 |
| 20260905081504 | 76 | 80 | 0.0 | 0.0 | 0.00 | 0.00 | 0.00 | 85 | 1014.0 |
| 20260905080006 | 77 | 80 | 0.0 | 0.0 | 0.00 | 0.00 | 0.00 | 84 | 1014.1 |
| 20260905074510 | 77 | 80 | 0.0 | 0.0 | 0.00 | 0.00 | 0.00 | 83 | 1014.3 |
| 20260905073011 | 78 | 80 | 0.0 | 0.0 | 0.00 | 0.00 | 0.00 | 83 | 1014.3 |
| 20260905071517 | 78 | 80 | 0.0 | 0.0 | 0.00 | 0.00 | 0.00 | 82 | 1014.7 |
| 20260905070004 | 78 | 80 | 0.0 | 0.0 | 0.00 | 0.00 | 0.00 | 81 | 1014.6 |
| 20260905064508 | 79 | 80 | 0.0 | 0.0 | 0.00 | 0.00 | 0.00 | 80 | 1015.0 |
| 20260905063008 | 79 | 80 | 0.0 | 0.0 | 0.00 | 0.00 | 0.00 | 79 | 1014.9 |
| 20260905061512 | 79 | 80 | 0.0 | 0.0 | 0.00 | 0.00 | 0.00 | 79 | 1015.2 |
| 20260905060034 | 79 | 75 | 0.0 | 0.0 | 0.00 | 0.00 | 0.00 | 79 | 1015.3 |
| 20260905054509 | 79 | 75 | 0.0 | 0.0 | 0.00 | 0.00 | 0.00 | 80 | 1015.4 |
| 20260905053006 | 79 | 75 | 0.0 | 0.0 | 0.00 | 0.00 | 0.00 | 81 | 1015.4 |
| 20260905051510 | 79 | 75 | 0.0 | 0.0 | 0.00 | 0.00 | 0.00 | 79 | 1015.3 |
| 20260905050016 | 80 | 75 | 0.0 | 0.0 | 0.00 | 0.00 | 0.00 | 78 | 1015.2 |
| 20260905044523 | 80 | 75 | 0.0 | 0.0 | 0.00 | 0.00 | 0.00 | 77 | 1015.4 |
| 20260905043004 | 81 | 75 | 0.0 | 0.0 | 0.00 | 0.00 | 0.00 | 75 | 1015.4 |
| 20260905041508 | 81 | 75 | 0.0 | 0.0 | 0.00 | 0.00 | 0.00 | 75 | 1015.2 |